createdAt,value
2017-10-24T00:00:11.238Z,14.64
2017-10-24T00:00:24.678Z,14.59
2017-10-24T00:00:37.603Z,14.61
2017-10-24T00:00:51.052Z,14.59
2017-10-24T00:01:05.188Z,14.61
2017-10-24T00:01:18.648Z,14.61
2017-10-24T00:01:31.534Z,14.59
2017-10-24T00:01:44.460Z,14.57
2017-10-24T00:01:57.354Z,14.61
2017-10-24T00:02:10.797Z,14.71
2017-10-24T00:02:23.682Z,14.67
2017-10-24T00:02:37.120Z,14.67
2017-10-24T00:02:52.371Z,14.66
2017-10-24T00:03:05.250Z,14.63
2017-10-24T00:03:18.684Z,14.66
2017-10-24T00:03:31.607Z,14.63
2017-10-24T00:03:45.065Z,14.67
2017-10-24T00:03:58.007Z,14.61
2017-10-24T00:04:10.905Z,14.71
2017-10-24T00:04:24.414Z,14.67
2017-10-24T00:04:37.826Z,14.63
2017-10-24T00:04:50.234Z,14.66
2017-10-24T00:05:03.661Z,14.69
2017-10-24T00:05:17.149Z,14.7
2017-10-24T00:05:30.563Z,14.67
2017-10-24T00:05:44.072Z,14.64
2017-10-24T00:05:57.553Z,14.61
2017-10-24T00:06:09.931Z,14.7
2017-10-24T00:06:23.395Z,14.69
2017-10-24T00:06:36.372Z,14.7
2017-10-24T00:06:49.903Z,14.69
2017-10-24T00:07:02.751Z,14.64
2017-10-24T00:07:15.132Z,14.64
2017-10-24T00:07:28.603Z,14.7
2017-10-24T00:07:41.484Z,14.64
2017-10-24T00:07:54.341Z,14.7
2017-10-24T00:08:07.247Z,14.59
2017-10-24T00:08:20.166Z,14.67
2017-10-24T00:08:33.610Z,14.7
2017-10-24T00:08:46.509Z,14.61
2017-10-24T00:08:59.986Z,14.63
2017-10-24T00:09:13.428Z,14.63
2017-10-24T00:09:26.284Z,14.71
2017-10-24T00:09:39.222Z,14.64
2017-10-24T00:09:52.693Z,14.66
2017-10-24T00:10:05.589Z,14.7
2017-10-24T00:10:18.451Z,14.7
2017-10-24T00:10:31.859Z,14.71
2017-10-24T00:10:45.316Z,14.71
2017-10-24T00:10:58.243Z,14.71
2017-10-24T00:11:11.081Z,14.74
2017-10-24T00:11:24.549Z,14.74
2017-10-24T00:11:37.988Z,14.79
2017-10-24T00:11:51.473Z,14.75
2017-10-24T00:12:04.414Z,14.66
2017-10-24T00:12:16.774Z,14.69
2017-10-24T00:12:30.177Z,14.75
2017-10-24T00:12:43.610Z,14.71
2017-10-24T00:12:55.461Z,14.7
2017-10-24T00:13:08.364Z,14.66
2017-10-24T00:13:21.825Z,14.69
2017-10-24T00:13:34.195Z,14.7
2017-10-24T00:13:47.114Z,14.7
2017-10-24T00:14:00.579Z,14.71
2017-10-24T00:14:13.445Z,14.74
2017-10-24T00:14:26.929Z,14.7
2017-10-24T00:14:39.279Z,14.64
2017-10-24T00:14:52.255Z,14.7
2017-10-24T00:15:05.169Z,14.64
2017-10-24T00:15:18.614Z,14.7
2017-10-24T00:15:32.087Z,14.74
2017-10-24T00:15:45.579Z,14.7
2017-10-24T00:15:59.053Z,14.74
2017-10-24T00:16:11.720Z,14.64
2017-10-24T00:16:25.183Z,14.67
2017-10-24T00:16:38.108Z,14.67
2017-10-24T00:16:51.511Z,14.59
2017-10-24T00:17:04.971Z,14.63
2017-10-24T00:17:17.357Z,14.6
2017-10-24T00:17:30.835Z,14.63
2017-10-24T00:17:43.191Z,14.61
2017-10-24T00:17:56.093Z,14.66
2017-10-24T00:18:09.583Z,14.7
2017-10-24T00:18:22.457Z,14.61
2017-10-24T00:18:35.346Z,14.67
2017-10-24T00:18:48.250Z,14.67
2017-10-24T00:19:01.691Z,14.67
2017-10-24T00:19:14.543Z,14.71
2017-10-24T00:19:26.905Z,14.57
2017-10-24T00:19:40.385Z,14.6
2017-10-24T00:19:53.294Z,14.63
2017-10-24T00:20:06.693Z,14.64
2017-10-24T00:20:19.046Z,14.71
2017-10-24T00:20:31.989Z,14.64
2017-10-24T00:20:44.935Z,14.61
2017-10-24T00:20:57.828Z,14.67
2017-10-24T00:21:11.460Z,14.64
2017-10-24T00:21:24.382Z,14.64
2017-10-24T00:21:37.795Z,14.63
2017-10-24T00:21:51.229Z,14.69
2017-10-24T00:22:04.701Z,14.64
2017-10-24T00:22:17.574Z,14.75
2017-10-24T00:22:31.036Z,14.66
2017-10-24T00:22:44.475Z,14.66
2017-10-24T00:22:57.916Z,14.69
2017-10-24T00:23:10.771Z,14.67
2017-10-24T00:23:23.680Z,14.66
2017-10-24T00:23:36.067Z,14.7
2017-10-24T00:23:49.517Z,14.7
2017-10-24T00:24:02.989Z,14.69
2017-10-24T00:24:15.916Z,14.75
2017-10-24T00:24:29.412Z,14.69
2017-10-24T00:24:42.275Z,14.66
2017-10-24T00:24:54.103Z,14.77
2017-10-24T00:25:06.494Z,14.77
2017-10-24T00:25:19.950Z,14.74
2017-10-24T00:25:32.381Z,14.74
2017-10-24T00:25:45.405Z,14.71
2017-10-24T00:25:57.734Z,14.71
2017-10-24T00:26:10.216Z,14.79
2017-10-24T00:26:23.213Z,14.74
2017-10-24T00:26:35.688Z,14.77
2017-10-24T00:26:49.364Z,14.74
2017-10-24T00:27:02.979Z,14.74
2017-10-24T00:27:14.872Z,14.74
2017-10-24T00:27:28.512Z,14.64
2017-10-24T00:27:42.144Z,14.7
2017-10-24T00:27:55.807Z,14.66
2017-10-24T00:28:09.722Z,14.69
2017-10-24T00:28:23.123Z,14.69
2017-10-24T00:28:36.474Z,14.66
2017-10-24T00:28:50.437Z,14.71
2017-10-24T00:29:03.846Z,14.7
2017-10-24T00:29:16.669Z,14.75
2017-10-24T00:29:30.667Z,14.67
2017-10-24T00:29:44.005Z,14.7
2017-10-24T00:29:57.853Z,14.67
2017-10-24T00:30:11.766Z,14.74
2017-10-24T00:30:25.738Z,14.69
2017-10-24T00:30:39.695Z,14.67
2017-10-24T00:30:53.586Z,14.67
2017-10-24T00:31:07.602Z,14.71
2017-10-24T00:31:21.597Z,14.7
2017-10-24T00:31:35.031Z,14.71
2017-10-24T00:31:48.457Z,14.63
2017-10-24T00:32:01.868Z,14.74
2017-10-24T00:32:15.291Z,14.71
2017-10-24T00:32:28.958Z,14.7
2017-10-24T00:32:42.910Z,14.77
2017-10-24T00:32:56.859Z,14.7
2017-10-24T00:33:10.741Z,14.71
2017-10-24T00:33:24.085Z,14.71
2017-10-24T00:33:37.485Z,14.75
2017-10-24T00:33:51.438Z,14.74
2017-10-24T00:34:05.397Z,14.71
2017-10-24T00:34:19.445Z,14.71
2017-10-24T00:34:33.453Z,14.71
2017-10-24T00:34:47.523Z,14.74
2017-10-24T00:35:01.496Z,14.71
2017-10-24T00:35:15.492Z,14.67
2017-10-24T00:35:28.968Z,14.71
2017-10-24T00:35:42.942Z,14.7
2017-10-24T00:35:57.003Z,14.71
2017-10-24T00:36:11.048Z,14.67
2017-10-24T00:36:24.480Z,14.69
2017-10-24T00:36:38.734Z,14.71
2017-10-24T00:36:52.184Z,14.7
2017-10-24T00:37:07.753Z,14.77
2017-10-24T00:37:21.190Z,14.74
2017-10-24T00:37:35.253Z,14.71
2017-10-24T00:37:48.761Z,14.7
2017-10-24T00:38:02.821Z,14.75
2017-10-24T00:38:16.277Z,14.7
2017-10-24T00:38:30.288Z,14.67
2017-10-24T00:38:44.045Z,14.69
2017-10-24T00:38:58.090Z,14.69
2017-10-24T00:39:12.328Z,14.64
2017-10-24T00:39:26.082Z,14.69
2017-10-24T00:39:39.575Z,14.69
2017-10-24T00:39:55.113Z,14.69
2017-10-24T00:40:09.005Z,14.67
2017-10-24T00:40:23.719Z,14.74
2017-10-24T00:40:37.769Z,14.79
2017-10-24T00:40:51.055Z,14.7
2017-10-24T00:41:04.559Z,14.74
2017-10-24T00:41:17.434Z,14.66
2017-10-24T00:41:33.629Z,14.74
2017-10-24T00:41:47.095Z,14.71
2017-10-24T00:42:00.615Z,14.74
2017-10-24T00:42:13.665Z,14.74
2017-10-24T00:42:26.711Z,14.71
2017-10-24T00:42:40.158Z,14.67
2017-10-24T00:42:54.449Z,14.71
2017-10-24T00:43:08.460Z,14.74
2017-10-24T00:43:21.360Z,14.74
2017-10-24T00:43:34.792Z,14.67
2017-10-24T00:43:48.244Z,14.7
2017-10-24T00:44:01.102Z,14.79
2017-10-24T00:44:14.823Z,14.74
2017-10-24T00:44:29.090Z,14.71
2017-10-24T00:44:43.172Z,14.69
2017-10-24T00:44:56.065Z,14.66
2017-10-24T00:45:09.476Z,14.69
2017-10-24T00:45:23.492Z,14.66
2017-10-24T00:45:37.517Z,14.77
2017-10-24T00:45:51.525Z,14.71
2017-10-24T00:46:07.142Z,14.69
2017-10-24T00:46:22.971Z,14.74
2017-10-24T00:46:36.663Z,14.69
2017-10-24T00:46:50.635Z,14.71
2017-10-24T00:47:03.436Z,14.69
2017-10-24T00:47:17.545Z,14.74
2017-10-24T00:47:30.942Z,14.66
2017-10-24T00:47:44.828Z,14.7
2017-10-24T00:47:58.273Z,14.77
2017-10-24T00:48:12.281Z,14.64
2017-10-24T00:48:26.328Z,14.67
2017-10-24T00:48:39.733Z,14.75
2017-10-24T00:48:53.743Z,14.71
2017-10-24T00:49:07.172Z,14.74
2017-10-24T00:49:20.003Z,14.69
2017-10-24T00:49:32.878Z,14.71
2017-10-24T00:49:46.841Z,14.69
2017-10-24T00:50:00.228Z,14.7
2017-10-24T00:50:14.290Z,14.74
2017-10-24T00:50:27.692Z,14.7
2017-10-24T00:50:41.033Z,14.71
2017-10-24T00:50:54.993Z,14.69
2017-10-24T00:51:08.947Z,14.71
2017-10-24T00:51:22.337Z,14.71
2017-10-24T00:51:36.310Z,14.69
2017-10-24T00:51:50.300Z,14.75
2017-10-24T00:52:04.213Z,14.71
2017-10-24T00:52:18.108Z,14.79
2017-10-24T00:52:30.923Z,14.71
2017-10-24T00:52:44.263Z,14.71
2017-10-24T00:52:57.028Z,14.77
2017-10-24T00:53:10.404Z,14.69
2017-10-24T00:53:24.242Z,14.67
2017-10-24T00:53:38.043Z,14.7
2017-10-24T00:53:51.975Z,14.7
2017-10-24T00:54:05.785Z,14.66
2017-10-24T00:54:19.151Z,14.77
2017-10-24T00:54:32.542Z,14.74
2017-10-24T00:54:46.434Z,14.69
2017-10-24T00:55:00.193Z,14.67
2017-10-24T00:55:13.996Z,14.64
2017-10-24T00:55:27.213Z,14.69
2017-10-24T00:55:40.440Z,14.75
2017-10-24T00:55:54.245Z,14.74
2017-10-24T00:56:06.835Z,14.75
2017-10-24T00:56:20.632Z,14.7
2017-10-24T00:56:34.241Z,14.83
2017-10-24T00:56:47.415Z,14.71
2017-10-24T00:57:00.461Z,14.74
2017-10-24T00:57:14.113Z,14.7
2017-10-24T00:57:27.711Z,14.79
2017-10-24T00:57:40.681Z,14.77
2017-10-24T00:57:53.583Z,14.66
2017-10-24T00:58:07.046Z,14.75
2017-10-24T00:58:20.556Z,14.75
2017-10-24T00:58:33.975Z,14.79
2017-10-24T00:58:46.920Z,14.67
2017-10-24T00:59:00.396Z,14.67
2017-10-24T00:59:13.884Z,14.7
2017-10-24T00:59:26.754Z,14.67
2017-10-24T00:59:38.542Z,14.69
2017-10-24T00:59:52.069Z,14.64
2017-10-24T01:00:04.995Z,14.74
2017-10-24T01:00:17.945Z,14.74
2017-10-24T01:00:30.841Z,14.71
2017-10-24T01:00:43.730Z,14.7
2017-10-24T01:00:57.181Z,14.7
2017-10-24T01:01:10.092Z,14.74
2017-10-24T01:01:24.190Z,14.74
2017-10-24T01:01:37.109Z,14.74
2017-10-24T01:01:49.994Z,14.74
2017-10-24T01:02:03.422Z,14.74
2017-10-24T01:02:15.757Z,14.71
2017-10-24T01:02:28.668Z,14.74
2017-10-24T01:02:40.484Z,14.74
2017-10-24T01:02:53.395Z,14.75
2017-10-24T01:03:06.842Z,14.71
2017-10-24T01:03:20.321Z,14.67
2017-10-24T01:03:33.766Z,14.71
2017-10-24T01:03:46.687Z,14.7
2017-10-24T01:04:00.148Z,14.7
2017-10-24T01:04:13.095Z,14.7
2017-10-24T01:04:26.493Z,14.8
2017-10-24T01:04:39.365Z,14.82
2017-10-24T01:04:52.843Z,14.7
2017-10-24T01:05:06.270Z,14.75
2017-10-24T01:05:19.698Z,14.66
2017-10-24T01:05:33.138Z,14.75
2017-10-24T01:05:46.564Z,14.79
2017-10-24T01:05:59.472Z,14.79
2017-10-24T01:06:11.837Z,14.66
2017-10-24T01:06:25.266Z,14.74
2017-10-24T01:06:38.687Z,14.71
2017-10-24T01:06:51.011Z,14.75
2017-10-24T01:07:04.483Z,14.71
2017-10-24T01:07:17.375Z,14.71
2017-10-24T01:07:30.828Z,14.71
2017-10-24T01:07:43.187Z,14.69
2017-10-24T01:07:56.623Z,14.74
2017-10-24T01:08:10.069Z,14.75
2017-10-24T01:08:23.483Z,14.71
2017-10-24T01:08:36.401Z,14.7
2017-10-24T01:08:49.300Z,14.79
2017-10-24T01:09:02.207Z,14.79
2017-10-24T01:09:15.114Z,14.67
2017-10-24T01:09:28.529Z,14.74
2017-10-24T01:09:41.943Z,14.71
2017-10-24T01:09:55.398Z,14.74
2017-10-24T01:10:07.734Z,14.67
2017-10-24T01:10:20.676Z,14.74
2017-10-24T01:10:34.088Z,14.75
2017-10-24T01:10:47.534Z,14.7
2017-10-24T01:11:00.944Z,14.67
2017-10-24T01:11:14.439Z,14.75
2017-10-24T01:11:27.897Z,14.69
2017-10-24T01:11:40.812Z,14.83
2017-10-24T01:11:53.171Z,14.75
2017-10-24T01:12:06.572Z,14.82
2017-10-24T01:12:18.874Z,14.79
2017-10-24T01:12:31.275Z,14.71
2017-10-24T01:12:44.194Z,14.7
2017-10-24T01:12:57.079Z,14.75
2017-10-24T01:13:10.489Z,14.71
2017-10-24T01:13:23.388Z,14.7
2017-10-24T01:13:36.320Z,14.7
2017-10-24T01:13:49.724Z,14.69
2017-10-24T01:14:02.637Z,14.71
2017-10-24T01:14:15.538Z,14.71
2017-10-24T01:14:28.449Z,14.74
2017-10-24T01:14:41.339Z,14.67
2017-10-24T01:14:53.676Z,14.7
2017-10-24T01:15:07.046Z,14.82
2017-10-24T01:15:20.463Z,14.79
2017-10-24T01:15:33.884Z,14.74
2017-10-24T01:15:46.810Z,14.79
2017-10-24T01:16:00.271Z,14.8
2017-10-24T01:16:12.628Z,14.83
2017-10-24T01:16:26.555Z,14.79
2017-10-24T01:16:39.981Z,14.8
2017-10-24T01:16:52.347Z,14.85
2017-10-24T01:17:04.697Z,14.82
2017-10-24T01:17:18.191Z,14.79
2017-10-24T01:17:30.614Z,14.83
2017-10-24T01:17:43.501Z,14.83
2017-10-24T01:17:56.952Z,14.8
2017-10-24T01:18:10.414Z,14.82
2017-10-24T01:18:23.312Z,14.86
2017-10-24T01:18:36.211Z,14.85
2017-10-24T01:18:49.657Z,14.86
2017-10-24T01:19:03.093Z,14.79
2017-10-24T01:19:16.006Z,14.82
2017-10-24T01:19:29.443Z,14.87
2017-10-24T01:19:42.409Z,14.82
2017-10-24T01:19:55.347Z,14.79
2017-10-24T01:20:08.259Z,14.8
2017-10-24T01:20:21.768Z,14.77
2017-10-24T01:20:35.249Z,14.74
2017-10-24T01:20:48.158Z,14.79
2017-10-24T01:21:01.549Z,14.77
2017-10-24T01:21:14.406Z,14.79
2017-10-24T01:21:27.295Z,14.79
2017-10-24T01:21:40.196Z,14.8
2017-10-24T01:21:53.105Z,14.77
2017-10-24T01:22:05.980Z,14.79
2017-10-24T01:22:19.462Z,14.85
2017-10-24T01:22:32.381Z,14.85
2017-10-24T01:22:45.792Z,14.8
2017-10-24T01:22:58.654Z,14.8
2017-10-24T01:23:11.031Z,14.87
2017-10-24T01:23:23.935Z,14.83
2017-10-24T01:23:36.854Z,14.77
2017-10-24T01:23:50.296Z,14.86
2017-10-24T01:24:02.602Z,14.86
2017-10-24T01:24:15.534Z,14.79
2017-10-24T01:24:28.949Z,14.83
2017-10-24T01:24:42.437Z,14.8
2017-10-24T01:24:54.780Z,14.93
2017-10-24T01:25:08.248Z,14.77
2017-10-24T01:25:21.679Z,14.9
2017-10-24T01:25:35.137Z,14.87
2017-10-24T01:25:48.065Z,14.8
2017-10-24T01:26:01.523Z,14.83
2017-10-24T01:26:13.874Z,14.9
2017-10-24T01:26:27.348Z,14.86
2017-10-24T01:26:40.399Z,14.95
2017-10-24T01:26:53.295Z,14.89
2017-10-24T01:27:06.759Z,14.83
2017-10-24T01:27:20.248Z,14.85
2017-10-24T01:27:33.746Z,14.8
2017-10-24T01:27:47.181Z,14.8
2017-10-24T01:28:00.636Z,14.97
2017-10-24T01:28:12.477Z,14.94
2017-10-24T01:28:25.926Z,14.85
2017-10-24T01:28:38.775Z,14.94
2017-10-24T01:28:52.286Z,14.8
2017-10-24T01:29:05.185Z,14.8
2017-10-24T01:29:18.048Z,14.85
2017-10-24T01:29:30.398Z,14.94
2017-10-24T01:29:43.341Z,14.83
2017-10-24T01:29:56.774Z,14.85
2017-10-24T01:30:09.156Z,14.9
2017-10-24T01:30:21.524Z,14.8
2017-10-24T01:30:34.945Z,14.83
2017-10-24T01:30:48.359Z,14.85
2017-10-24T01:31:01.260Z,14.79
2017-10-24T01:31:14.185Z,14.85
2017-10-24T01:31:27.642Z,14.85
2017-10-24T01:31:41.692Z,14.79
2017-10-24T01:31:55.140Z,14.79
2017-10-24T01:32:08.529Z,14.83
2017-10-24T01:32:21.987Z,14.77
2017-10-24T01:32:35.486Z,14.79
2017-10-24T01:32:48.403Z,14.83
2017-10-24T01:33:01.870Z,14.8
2017-10-24T01:33:15.346Z,14.77
2017-10-24T01:33:28.799Z,14.8
2017-10-24T01:33:41.714Z,14.79
2017-10-24T01:33:55.166Z,14.69
2017-10-24T01:34:07.491Z,14.75
2017-10-24T01:34:20.391Z,14.75
2017-10-24T01:34:33.897Z,14.82
2017-10-24T01:34:47.359Z,14.77
2017-10-24T01:35:00.319Z,14.79
2017-10-24T01:35:13.796Z,14.67
2017-10-24T01:35:26.760Z,14.74
2017-10-24T01:35:40.329Z,14.71
2017-10-24T01:35:52.753Z,14.71
2017-10-24T01:36:12.518Z,14.74
2017-10-24T01:36:25.988Z,14.7
2017-10-24T01:36:38.957Z,14.83
2017-10-24T01:36:52.475Z,14.67
2017-10-24T01:37:06.025Z,14.71
2017-10-24T01:37:19.581Z,14.86
2017-10-24T01:37:33.188Z,14.7
2017-10-24T01:37:46.702Z,14.7
2017-10-24T01:37:59.076Z,14.66
2017-10-24T01:38:11.551Z,14.82
2017-10-24T01:38:25.151Z,14.74
2017-10-24T01:38:38.958Z,14.74
2017-10-24T01:38:52.566Z,14.67
2017-10-24T01:39:06.095Z,14.71
2017-10-24T01:39:19.025Z,14.7
2017-10-24T01:39:31.547Z,14.71
2017-10-24T01:39:44.597Z,14.83
2017-10-24T01:39:58.188Z,14.7
2017-10-24T01:40:11.179Z,14.71
2017-10-24T01:40:24.306Z,14.74
2017-10-24T01:40:38.080Z,14.71
2017-10-24T01:40:51.955Z,14.77
2017-10-24T01:41:05.683Z,14.7
2017-10-24T01:41:19.430Z,14.7
2017-10-24T01:41:32.688Z,14.83
2017-10-24T01:41:46.401Z,14.83
2017-10-24T01:41:59.470Z,14.71
2017-10-24T01:42:13.152Z,14.74
2017-10-24T01:42:26.673Z,14.75
2017-10-24T01:42:40.144Z,14.71
2017-10-24T01:42:53.178Z,14.7
2017-10-24T01:43:06.676Z,14.74
2017-10-24T01:43:19.609Z,14.71
2017-10-24T01:43:32.541Z,14.83
2017-10-24T01:43:46.167Z,14.7
2017-10-24T01:43:59.176Z,14.79
2017-10-24T01:44:12.202Z,14.75
2017-10-24T01:44:24.630Z,14.77
2017-10-24T01:44:38.125Z,14.74
2017-10-24T01:44:51.724Z,14.77
2017-10-24T01:45:04.141Z,14.69
2017-10-24T01:45:17.721Z,14.8
2017-10-24T01:45:30.714Z,14.7
2017-10-24T01:45:43.658Z,14.67
2017-10-24T01:45:57.228Z,14.77
2017-10-24T01:46:10.765Z,14.77
2017-10-24T01:46:24.287Z,14.79
2017-10-24T01:46:37.318Z,14.71
2017-10-24T01:46:51.358Z,14.77
2017-10-24T01:47:04.311Z,14.82
2017-10-24T01:47:17.238Z,14.83
2017-10-24T01:47:30.757Z,14.8
2017-10-24T01:47:44.223Z,14.77
2017-10-24T01:47:57.185Z,14.79
2017-10-24T01:48:10.180Z,14.82
2017-10-24T01:48:23.135Z,14.86
2017-10-24T01:48:36.637Z,14.82
2017-10-24T01:48:49.551Z,14.79
2017-10-24T01:49:03.015Z,14.8
2017-10-24T01:49:16.554Z,14.67
2017-10-24T01:49:29.978Z,14.71
2017-10-24T01:49:43.493Z,14.83
2017-10-24T01:49:57.002Z,14.77
2017-10-24T01:50:09.391Z,14.71
2017-10-24T01:50:22.337Z,14.74
2017-10-24T01:50:34.759Z,14.8
2017-10-24T01:50:48.225Z,14.85
2017-10-24T01:51:01.728Z,14.77
2017-10-24T01:51:15.296Z,14.75
2017-10-24T01:51:28.219Z,14.77
2017-10-24T01:51:41.193Z,14.75
2017-10-24T01:51:54.111Z,14.79
2017-10-24T01:52:07.050Z,14.79
2017-10-24T01:52:20.560Z,14.67
2017-10-24T01:52:34.055Z,14.79
2017-10-24T01:52:47.025Z,14.66
2017-10-24T01:53:00.503Z,14.79
2017-10-24T01:53:13.905Z,14.8
2017-10-24T01:53:26.804Z,14.77
2017-10-24T01:53:40.269Z,14.79
2017-10-24T01:53:52.658Z,14.79
2017-10-24T01:54:37.291Z,14.82
2017-10-24T01:54:49.675Z,14.83
2017-10-24T01:55:02.609Z,14.86
2017-10-24T01:55:15.514Z,14.82
2017-10-24T01:55:27.883Z,14.82
2017-10-24T01:55:40.257Z,14.79
2017-10-24T01:55:53.177Z,14.82
2017-10-24T01:56:06.161Z,14.8
2017-10-24T01:56:19.101Z,14.75
2017-10-24T01:56:32.581Z,14.82
2017-10-24T01:56:44.948Z,14.79
2017-10-24T01:56:58.399Z,14.82
2017-10-24T01:57:43.796Z,14.85
2017-10-24T01:57:57.259Z,14.85
2017-10-24T01:58:10.695Z,14.83
2017-10-24T01:58:24.120Z,14.85
2017-10-24T01:58:37.574Z,14.89
2017-10-24T01:58:50.503Z,14.94
2017-10-24T01:59:03.408Z,14.86
2017-10-24T01:59:16.314Z,14.93
2017-10-24T01:59:29.751Z,14.9
2017-10-24T01:59:43.239Z,14.94
2017-10-24T01:59:56.202Z,14.8
2017-10-24T02:00:09.111Z,14.9
2017-10-24T02:00:22.036Z,14.82
2017-10-24T02:00:34.963Z,14.94
2017-10-24T02:00:47.866Z,14.95
2017-10-24T02:01:00.745Z,14.98
2017-10-24T02:01:13.653Z,14.93
2017-10-24T02:01:27.112Z,14.94
2017-10-24T02:01:40.595Z,14.85
2017-10-24T02:01:54.796Z,14.97
2017-10-24T02:02:08.229Z,14.9
2017-10-24T02:02:21.108Z,14.9
2017-10-24T02:02:34.572Z,14.9
2017-10-24T02:02:47.478Z,14.9
2017-10-24T02:03:00.408Z,14.93
2017-10-24T02:03:13.861Z,14.9
2017-10-24T02:03:27.267Z,14.94
2017-10-24T02:03:40.713Z,14.93
2017-10-24T02:03:54.141Z,14.89
2017-10-24T02:04:07.583Z,14.86
2017-10-24T02:04:20.524Z,14.82
2017-10-24T02:04:33.459Z,14.95
2017-10-24T02:04:45.830Z,14.85
2017-10-24T02:04:58.767Z,14.94
2017-10-24T02:05:12.206Z,14.83
2017-10-24T02:05:25.147Z,14.97
2017-10-24T02:05:38.082Z,14.82
2017-10-24T02:05:50.497Z,14.95
2017-10-24T02:06:03.432Z,14.94
2017-10-24T02:06:16.320Z,14.86
2017-10-24T02:06:28.155Z,14.95
2017-10-24T02:06:41.596Z,14.94
2017-10-24T02:06:54.513Z,14.93
2017-10-24T02:07:08.008Z,14.89
2017-10-24T02:07:21.447Z,14.9
2017-10-24T02:07:34.934Z,14.93
2017-10-24T02:07:48.446Z,14.94
2017-10-24T02:08:01.873Z,14.9
2017-10-24T02:08:15.355Z,14.9
2017-10-24T02:08:27.758Z,14.86
2017-10-24T02:08:40.161Z,14.97
2017-10-24T02:08:53.085Z,14.86
2017-10-24T02:09:06.571Z,14.9
2017-10-24T02:09:19.430Z,14.93
2017-10-24T02:09:32.880Z,14.94
2017-10-24T02:09:46.364Z,14.95
2017-10-24T02:09:59.240Z,14.82
2017-10-24T02:10:12.147Z,14.9
2017-10-24T02:10:24.517Z,14.9
2017-10-24T02:10:37.434Z,14.9
2017-10-24T02:10:50.367Z,14.83
2017-10-24T02:11:03.816Z,14.83
2017-10-24T02:11:16.265Z,14.82
2017-10-24T02:11:29.141Z,14.82
2017-10-24T02:11:42.627Z,14.93
2017-10-24T02:11:55.586Z,14.98
2017-10-24T02:12:08.466Z,14.86
2017-10-24T02:12:21.402Z,14.9
2017-10-24T02:12:34.830Z,14.82
2017-10-24T02:12:48.292Z,14.89
2017-10-24T02:13:01.769Z,14.93
2017-10-24T02:13:15.219Z,14.86
2017-10-24T02:13:28.069Z,14.89
2017-10-24T02:13:41.501Z,14.82
2017-10-24T02:13:54.401Z,14.8
2017-10-24T02:14:07.340Z,14.89
2017-10-24T02:14:51.600Z,14.77
2017-10-24T02:15:04.499Z,14.83
2017-10-24T02:15:17.444Z,14.8
2017-10-24T02:15:30.383Z,14.82
2017-10-24T02:15:42.808Z,14.82
2017-10-24T02:15:55.200Z,14.87
2017-10-24T02:16:08.643Z,14.9
2017-10-24T02:16:22.079Z,14.82
2017-10-24T02:16:33.902Z,14.82
2017-10-24T02:16:47.611Z,14.8
2017-10-24T02:17:01.011Z,14.97
2017-10-24T02:17:13.378Z,14.85
2017-10-24T02:17:26.810Z,14.82
2017-10-24T02:17:40.272Z,14.85
2017-10-24T02:17:53.721Z,14.87
2017-10-24T02:18:07.176Z,14.93
2017-10-24T02:18:20.630Z,14.9
2017-10-24T02:18:34.125Z,14.89
2017-10-24T02:18:47.054Z,14.94
2017-10-24T02:19:00.536Z,14.85
2017-10-24T02:19:13.446Z,14.95
2017-10-24T02:19:26.921Z,14.94
2017-10-24T02:19:40.377Z,14.85
2017-10-24T02:19:53.269Z,14.9
2017-10-24T02:20:06.155Z,14.94
2017-10-24T02:20:19.064Z,14.94
2017-10-24T02:20:32.525Z,14.9
2017-10-24T02:20:45.392Z,14.83
2017-10-24T02:20:58.330Z,14.93
2017-10-24T02:21:11.239Z,14.93
2017-10-24T02:21:24.712Z,14.94
2017-10-24T02:21:37.602Z,14.94
2017-10-24T02:21:51.050Z,14.94
2017-10-24T02:22:04.501Z,14.9
2017-10-24T02:22:16.866Z,14.9
2017-10-24T02:22:29.768Z,14.93
2017-10-24T02:22:43.200Z,14.95
2017-10-24T02:22:56.613Z,14.9
2017-10-24T02:23:09.527Z,14.85
2017-10-24T02:23:22.953Z,14.9
2017-10-24T02:23:36.409Z,14.83
2017-10-24T02:23:49.843Z,14.9
2017-10-24T02:24:03.311Z,14.83
2017-10-24T02:25:01.579Z,14.93
2017-10-24T02:25:13.963Z,14.93
2017-10-24T02:25:26.843Z,14.85
2017-10-24T02:25:39.759Z,14.82
2017-10-24T02:25:52.693Z,14.9
2017-10-24T02:26:05.582Z,14.93
2017-10-24T02:26:19.071Z,14.94
2017-10-24T02:26:32.551Z,14.82
2017-10-24T02:26:45.443Z,14.9
2017-10-24T02:26:58.946Z,14.93
2017-10-24T02:27:12.448Z,14.94
2017-10-24T02:27:25.319Z,14.94
2017-10-24T02:27:38.197Z,14.82
2017-10-24T02:27:50.538Z,14.83
2017-10-24T02:28:04.006Z,14.94
2017-10-24T02:28:16.910Z,14.89
2017-10-24T02:28:29.785Z,14.82
2017-10-24T02:28:43.185Z,14.94
2017-10-24T02:28:56.105Z,14.93
2017-10-24T02:29:09.050Z,14.93
2017-10-24T02:29:21.925Z,14.93
2017-10-24T02:29:35.400Z,14.94
2017-10-24T02:30:20.768Z,14.87
2017-10-24T02:30:34.210Z,14.97
2017-10-24T02:30:46.586Z,14.89
2017-10-24T02:30:59.510Z,14.93
2017-10-24T02:31:12.402Z,14.87
2017-10-24T02:31:25.333Z,15
2017-10-24T02:31:38.237Z,14.98
2017-10-24T02:31:52.253Z,14.86
2017-10-24T02:32:04.597Z,14.93
2017-10-24T02:32:18.008Z,14.94
2017-10-24T02:32:31.487Z,14.9
2017-10-24T02:32:44.895Z,14.94
2017-10-24T02:32:57.761Z,14.83
2017-10-24T02:33:11.214Z,14.89
2017-10-24T02:33:23.602Z,14.97
2017-10-24T02:33:35.948Z,14.97
2017-10-24T02:33:49.375Z,14.94
2017-10-24T02:34:02.280Z,14.87
2017-10-24T02:34:15.157Z,14.94
2017-10-24T02:34:28.633Z,14.93
2017-10-24T02:34:40.985Z,14.98
2017-10-24T02:34:53.320Z,14.98
2017-10-24T02:35:06.746Z,14.97
2017-10-24T02:35:51.547Z,14.82
2017-10-24T02:36:05.023Z,14.94
2017-10-24T02:36:16.307Z,14.9
2017-10-24T02:36:29.223Z,14.87
2017-10-24T02:36:41.051Z,14.89
2017-10-24T02:36:53.980Z,14.93
2017-10-24T02:37:07.433Z,14.95
2017-10-24T02:37:20.832Z,14.9
2017-10-24T02:37:34.263Z,14.98
2017-10-24T02:37:46.618Z,14.87
2017-10-24T02:38:00.074Z,14.98
2017-10-24T02:38:13.504Z,14.97
2017-10-24T02:38:58.291Z,14.93
2017-10-24T02:39:11.746Z,14.9
2017-10-24T02:39:24.591Z,15
2017-10-24T02:39:38.041Z,14.89
2017-10-24T02:39:51.463Z,14.93
2017-10-24T02:40:04.938Z,14.89
2017-10-24T02:40:18.403Z,14.95
2017-10-24T02:40:31.845Z,14.85
2017-10-24T02:40:44.766Z,14.97
2017-10-24T02:40:57.683Z,14.97
2017-10-24T02:41:10.564Z,14.97
2017-10-24T02:41:24.036Z,14.95
2017-10-24T02:41:37.442Z,14.93
2017-10-24T02:41:50.316Z,14.82
2017-10-24T02:42:03.787Z,14.9
2017-10-24T02:42:16.685Z,14.89
2017-10-24T02:42:29.567Z,14.82
2017-10-24T02:42:42.481Z,14.8
2017-10-24T02:42:55.978Z,14.87
2017-10-24T02:43:09.419Z,14.77
2017-10-24T02:43:22.901Z,14.82
2017-10-24T02:43:36.325Z,14.85
2017-10-24T02:43:49.206Z,14.83
2017-10-24T02:44:02.129Z,14.8
2017-10-24T02:44:15.034Z,14.83
2017-10-24T02:44:27.912Z,14.83
2017-10-24T02:45:12.690Z,14.77
2017-10-24T02:45:57.236Z,14.85
2017-10-24T02:46:10.726Z,14.79
2017-10-24T02:46:23.671Z,14.82
2017-10-24T02:46:36.009Z,14.77
2017-10-24T02:46:49.452Z,14.83
2017-10-24T02:47:02.370Z,14.8
2017-10-24T02:47:59.785Z,14.8
2017-10-24T02:48:13.234Z,14.83
2017-10-24T02:48:26.654Z,14.79
2017-10-24T02:48:39.611Z,14.77
2017-10-24T02:48:52.531Z,14.8
2017-10-24T02:49:05.955Z,14.8
2017-10-24T02:49:19.406Z,14.77
2017-10-24T02:49:32.877Z,14.8
2017-10-24T02:49:46.369Z,14.8
2017-10-24T02:49:59.296Z,14.71
2017-10-24T02:50:12.187Z,14.85
2017-10-24T02:50:25.619Z,14.85
2017-10-24T02:50:38.544Z,14.83
2017-10-24T02:50:51.955Z,14.8
2017-10-24T02:51:04.299Z,14.85
2017-10-24T02:51:17.756Z,14.8
2017-10-24T02:51:30.111Z,14.85
2017-10-24T02:51:42.466Z,14.8
2017-10-24T02:51:55.932Z,14.8
2017-10-24T02:52:09.510Z,14.77
2017-10-24T02:52:21.868Z,14.85
2017-10-24T02:52:35.338Z,14.77
2017-10-24T02:52:47.713Z,14.82
2017-10-24T02:53:01.129Z,14.85
2017-10-24T02:53:14.579Z,14.83
2017-10-24T02:53:27.485Z,14.85
2017-10-24T02:53:40.882Z,14.8
2017-10-24T02:53:54.354Z,14.93
2017-10-24T02:54:07.816Z,14.82
2017-10-24T02:54:21.306Z,14.8
2017-10-24T02:54:33.668Z,14.85
2017-10-24T02:54:47.112Z,14.8
2017-10-24T02:55:00.026Z,14.93
2017-10-24T02:55:12.922Z,14.8
2017-10-24T02:55:26.390Z,14.77
2017-10-24T02:55:39.883Z,14.82
2017-10-24T02:55:53.286Z,14.82
2017-10-24T02:56:06.191Z,14.83
2017-10-24T02:56:19.077Z,14.94
2017-10-24T02:56:32.509Z,14.83
2017-10-24T02:56:45.966Z,14.8
2017-10-24T02:56:59.370Z,14.93
2017-10-24T02:57:12.769Z,14.83